createdAt,value
2018-07-06T00:00:47.928Z,17.76
2018-07-06T00:01:47.947Z,17.77
2018-07-06T00:02:47.969Z,17.69
2018-07-06T00:03:47.989Z,17.66
2018-07-06T00:04:48.014Z,17.66
2018-07-06T00:05:48.032Z,17.63
2018-07-06T00:06:48.055Z,17.66
2018-07-06T00:07:48.077Z,17.68
2018-07-06T00:08:48.097Z,17.65
2018-07-06T00:09:48.118Z,17.69
2018-07-06T00:10:48.137Z,17.63
2018-07-06T00:11:48.161Z,17.63
2018-07-06T00:12:48.183Z,17.66
2018-07-06T00:13:48.202Z,17.63
2018-07-06T00:14:48.244Z,17.62
2018-07-06T00:15:48.245Z,17.63
2018-07-06T00:16:48.275Z,17.62
2018-07-06T00:17:48.286Z,17.57
2018-07-06T00:18:48.306Z,17.50
2018-07-06T00:19:48.331Z,17.47
2018-07-06T00:20:48.353Z,17.46
2018-07-06T00:21:48.370Z,17.47
2018-07-06T00:22:48.391Z,17.43
2018-07-06T00:23:48.413Z,17.42
2018-07-06T00:24:48.435Z,17.42
2018-07-06T00:25:48.457Z,17.46
2018-07-06T00:26:48.476Z,17.35
2018-07-06T00:27:48.496Z,17.36
2018-07-06T00:28:48.518Z,17.36
2018-07-06T00:29:48.539Z,17.38
2018-07-06T00:30:48.559Z,17.32
2018-07-06T00:31:48.585Z,17.32
2018-07-06T00:32:48.606Z,17.39
2018-07-06T00:33:48.622Z,17.30
2018-07-06T00:34:48.645Z,17.24
2018-07-06T00:35:48.668Z,17.21
2018-07-06T00:36:48.739Z,17.25
2018-07-06T00:37:48.706Z,17.24
2018-07-06T00:38:48.731Z,17.27
2018-07-06T00:39:48.753Z,17.24
2018-07-06T00:40:48.772Z,17.30
2018-07-06T00:41:48.791Z,17.30
2018-07-06T00:42:48.815Z,17.30
2018-07-06T00:43:48.833Z,17.20
2018-07-06T00:44:48.854Z,17.27
2018-07-06T00:45:48.878Z,17.21
2018-07-06T00:46:48.897Z,17.09
2018-07-06T00:47:48.917Z,17.17
2018-07-06T00:48:48.993Z,17.09
2018-07-06T00:49:48.960Z,17.21
2018-07-06T00:50:48.979Z,17.13
2018-07-06T00:51:49.006Z,17.28
2018-07-06T00:52:49.025Z,17.15
2018-07-06T00:53:49.044Z,17.25
2018-07-06T00:54:49.105Z,17.27
2018-07-06T00:55:49.085Z,17.24
2018-07-06T00:56:49.106Z,17.25
2018-07-06T00:57:49.130Z,17.27
2018-07-06T00:58:49.148Z,17.21
2018-07-06T00:59:49.168Z,17.18
2018-07-06T01:00:49.193Z,17.10
2018-07-06T01:01:49.284Z,17.10
2018-07-06T01:02:49.231Z,17.06
2018-07-06T01:03:49.254Z,17.09
2018-07-06T01:04:49.274Z,17.05
2018-07-06T01:05:49.293Z,17.09
2018-07-06T01:06:49.318Z,17.09
2018-07-06T01:07:49.341Z,17.06
2018-07-06T01:08:49.357Z,17.00
2018-07-06T01:09:49.379Z,16.95
2018-07-06T01:10:49.402Z,17.02
2018-07-06T01:11:49.421Z,17.02
2018-07-06T01:12:49.444Z,17.02
2018-07-06T01:13:49.464Z,17.03
2018-07-06T01:14:49.482Z,17.09
2018-07-06T01:15:49.506Z,17.17
2018-07-06T01:16:49.528Z,17.17
2018-07-06T01:17:49.545Z,17.18
2018-07-06T01:18:49.569Z,17.15
2018-07-06T01:19:49.590Z,17.15
2018-07-06T01:20:49.608Z,17.17
2018-07-06T01:21:49.629Z,17.17
2018-07-06T01:22:49.653Z,17.20
2018-07-06T01:23:49.672Z,17.31
2018-07-06T01:24:49.696Z,17.22
2018-07-06T01:25:49.715Z,17.30
2018-07-06T01:26:49.736Z,17.20
2018-07-06T01:27:49.756Z,17.28
2018-07-06T01:28:49.776Z,17.38
2018-07-06T01:29:49.797Z,17.38
2018-07-06T01:30:49.817Z,17.36
2018-07-06T01:31:49.841Z,17.42
2018-07-06T01:32:49.861Z,17.39
2018-07-06T01:33:49.882Z,17.49
2018-07-06T01:34:49.901Z,17.52
2018-07-06T01:35:49.928Z,17.47
2018-07-06T01:36:49.945Z,17.47
2018-07-06T01:37:49.963Z,17.42
2018-07-06T01:38:49.986Z,17.39
2018-07-06T01:39:50.008Z,17.36
2018-07-06T01:40:50.033Z,17.42
2018-07-06T01:41:50.048Z,17.35
2018-07-06T01:42:50.071Z,17.32
2018-07-06T01:43:50.093Z,17.40
2018-07-06T01:44:50.122Z,17.47
2018-07-06T01:45:50.135Z,17.45
2018-07-06T01:46:50.154Z,17.45
2018-07-06T01:47:50.177Z,17.42
2018-07-06T01:48:50.196Z,17.40
2018-07-06T01:49:50.216Z,17.39
2018-07-06T01:50:50.237Z,17.36
2018-07-06T01:51:50.262Z,17.32
2018-07-06T01:52:50.281Z,17.38
2018-07-06T01:53:50.303Z,17.43
2018-07-06T01:54:50.325Z,17.36
2018-07-06T01:55:50.342Z,17.46
2018-07-06T01:56:50.365Z,17.43
2018-07-06T01:57:50.386Z,17.38
2018-07-06T01:58:50.405Z,17.40
2018-07-06T01:59:50.429Z,17.47
2018-07-06T02:00:50.451Z,17.47
2018-07-06T02:01:50.471Z,17.52
2018-07-06T02:02:50.489Z,17.58
2018-07-06T02:03:50.511Z,17.54
2018-07-06T02:04:50.533Z,17.54
2018-07-06T02:05:50.556Z,17.54
2018-07-06T02:06:50.578Z,17.45
2018-07-06T02:07:50.601Z,17.42
2018-07-06T02:08:50.619Z,17.47
2018-07-06T02:09:50.640Z,17.45
2018-07-06T02:10:50.659Z,17.46
2018-07-06T02:11:50.679Z,17.45
2018-07-06T02:12:50.702Z,17.42
2018-07-06T02:13:50.724Z,17.30
2018-07-06T02:14:50.743Z,17.38
2018-07-06T02:15:50.765Z,17.39
2018-07-06T02:16:50.789Z,17.28
2018-07-06T02:17:50.808Z,17.25
2018-07-06T02:18:50.825Z,17.25
2018-07-06T02:19:50.851Z,17.17
2018-07-06T02:20:50.871Z,17.27
2018-07-06T02:21:50.890Z,17.22
2018-07-06T02:22:50.913Z,17.28
2018-07-06T02:23:50.935Z,17.24
2018-07-06T02:24:50.952Z,17.20
2018-07-06T02:25:50.973Z,17.30
2018-07-06T02:26:50.997Z,17.35
2018-07-06T02:27:51.014Z,17.32
2018-07-06T02:28:51.039Z,17.30
2018-07-06T02:29:51.059Z,17.32
2018-07-06T02:30:51.084Z,17.30
2018-07-06T02:31:51.102Z,17.32
2018-07-06T02:32:51.120Z,17.42
2018-07-06T02:33:51.145Z,17.49
2018-07-06T02:34:51.161Z,17.45
2018-07-06T02:35:51.187Z,17.50
2018-07-06T02:36:51.204Z,17.57
2018-07-06T02:37:51.226Z,17.50
2018-07-06T02:38:51.245Z,17.55
2018-07-06T02:39:51.267Z,17.62
2018-07-06T02:40:51.288Z,17.66
2018-07-06T02:41:51.312Z,17.65
2018-07-06T02:42:51.330Z,17.65
2018-07-06T02:43:51.353Z,17.63
2018-07-06T02:44:51.374Z,17.57
2018-07-06T02:45:51.393Z,17.54
2018-07-06T02:46:51.413Z,17.58
2018-07-06T02:47:51.439Z,17.50
2018-07-06T02:48:51.459Z,17.62
2018-07-06T02:49:51.479Z,17.58
2018-07-06T02:50:51.497Z,17.50
2018-07-06T02:51:51.519Z,17.54
2018-07-06T02:52:51.544Z,17.50
2018-07-06T02:53:51.560Z,17.60
2018-07-06T02:54:51.582Z,17.52
2018-07-06T02:55:51.606Z,17.50
2018-07-06T02:56:51.630Z,17.54
2018-07-06T02:57:51.648Z,17.50
2018-07-06T02:58:51.666Z,17.47
2018-07-06T02:59:51.691Z,17.43
2018-07-06T03:00:51.709Z,17.50
2018-07-06T03:01:51.731Z,17.42
2018-07-06T03:02:51.750Z,17.45
2018-07-06T03:03:51.776Z,17.47
2018-07-06T03:04:51.793Z,17.38
2018-07-06T03:05:51.814Z,17.30
2018-07-06T03:06:51.836Z,17.38
2018-07-06T03:07:51.856Z,17.31
2018-07-06T03:08:51.884Z,17.31
2018-07-06T03:09:51.900Z,17.32
2018-07-06T03:10:51.923Z,17.32
2018-07-06T03:11:51.940Z,17.36
2018-07-06T03:12:51.961Z,17.31
2018-07-06T03:13:51.983Z,17.32
2018-07-06T03:14:52.003Z,17.39
2018-07-06T03:15:52.023Z,17.38
2018-07-06T03:16:52.046Z,17.39
2018-07-06T03:17:52.068Z,17.43
2018-07-06T03:18:52.091Z,17.52
2018-07-06T03:19:52.109Z,17.50
2018-07-06T03:20:52.131Z,17.52
2018-07-06T03:21:52.149Z,17.62
2018-07-06T03:22:52.172Z,17.63
2018-07-06T03:23:52.193Z,17.57
2018-07-06T03:24:52.218Z,17.62
2018-07-06T03:25:52.233Z,17.63
2018-07-06T03:26:52.255Z,17.65
2018-07-06T03:27:52.375Z,17.60
2018-07-06T03:28:52.435Z,17.55
2018-07-06T03:29:52.316Z,17.50
2018-07-06T03:30:52.342Z,17.45
2018-07-06T03:31:52.362Z,17.46
2018-07-06T03:32:52.381Z,17.49
2018-07-06T03:33:52.403Z,17.55
2018-07-06T03:34:52.426Z,17.57
2018-07-06T03:35:52.446Z,17.62
2018-07-06T03:36:52.470Z,17.52
2018-07-06T03:37:52.484Z,17.54
2018-07-06T03:38:52.539Z,17.57
2018-07-06T03:39:52.529Z,17.55
2018-07-06T03:40:52.551Z,17.50
2018-07-06T03:41:52.572Z,17.54
2018-07-06T03:42:52.593Z,17.54
2018-07-06T03:43:52.616Z,17.47
2018-07-06T03:44:52.636Z,17.49
2018-07-06T03:45:52.653Z,17.45
2018-07-06T03:46:52.677Z,17.49
2018-07-06T03:47:52.698Z,17.46
2018-07-06T03:48:52.720Z,17.46
2018-07-06T03:49:52.740Z,17.49
2018-07-06T03:50:52.764Z,17.45
2018-07-06T03:51:52.779Z,17.43
2018-07-06T03:52:52.804Z,17.47
2018-07-06T03:53:52.822Z,17.45
2018-07-06T03:54:52.876Z,17.42
2018-07-06T03:55:52.867Z,17.43
2018-07-06T03:56:52.890Z,17.45
2018-07-06T03:57:52.907Z,17.45
2018-07-06T03:58:52.927Z,17.47
2018-07-06T03:59:52.951Z,17.58
2018-07-06T04:00:52.970Z,17.63
2018-07-06T04:01:52.990Z,17.74
2018-07-06T04:02:53.011Z,17.77
2018-07-06T04:03:53.033Z,17.71
2018-07-06T04:04:53.056Z,17.63
2018-07-06T04:05:53.076Z,17.74
2018-07-06T04:06:53.097Z,17.71
2018-07-06T04:07:53.116Z,17.65
2018-07-06T04:08:53.139Z,17.79
2018-07-06T04:09:53.160Z,17.74
2018-07-06T04:10:53.179Z,17.76
2018-07-06T04:11:53.199Z,17.77
2018-07-06T04:12:53.223Z,17.77
2018-07-06T04:13:53.240Z,17.76
2018-07-06T04:14:53.271Z,17.80
2018-07-06T04:15:53.300Z,17.80
2018-07-06T04:16:53.308Z,17.77
2018-07-06T04:17:53.327Z,17.69
2018-07-06T04:18:53.349Z,17.68
2018-07-06T04:19:53.371Z,17.63
2018-07-06T04:20:53.392Z,17.62
2018-07-06T04:21:53.411Z,17.57
2018-07-06T04:22:53.431Z,17.54
2018-07-06T04:23:53.454Z,17.50
2018-07-06T04:24:53.476Z,17.58
2018-07-06T04:25:53.495Z,17.63
2018-07-06T04:26:53.518Z,17.57
2018-07-06T04:27:53.536Z,17.62
2018-07-06T04:28:53.557Z,17.77
2018-07-06T04:29:53.580Z,17.76
2018-07-06T04:30:53.598Z,17.80
2018-07-06T04:31:53.622Z,17.81
2018-07-06T04:32:53.641Z,17.79
2018-07-06T04:33:53.661Z,17.76
2018-07-06T04:34:53.684Z,17.79
2018-07-06T04:35:53.705Z,17.66
2018-07-06T04:36:53.727Z,17.74
2018-07-06T04:37:53.748Z,17.71
2018-07-06T04:38:53.767Z,17.71
2018-07-06T04:39:53.790Z,17.74
2018-07-06T04:40:53.810Z,17.80
2018-07-06T04:41:53.832Z,17.71
2018-07-06T04:42:53.854Z,17.80
2018-07-06T04:43:53.875Z,17.83
2018-07-06T04:44:53.895Z,17.66
2018-07-06T04:45:53.914Z,17.60
2018-07-06T04:46:53.939Z,17.57
2018-07-06T04:47:53.956Z,17.65
2018-07-06T04:48:53.977Z,17.58
2018-07-06T04:49:54.113Z,17.65
2018-07-06T04:50:54.027Z,17.62
2018-07-06T04:51:54.042Z,17.69
2018-07-06T04:52:54.065Z,17.69
2018-07-06T04:53:54.085Z,17.77
2018-07-06T04:54:54.105Z,17.83
2018-07-06T04:55:54.125Z,17.77
2018-07-06T04:56:54.149Z,17.87
2018-07-06T04:57:54.167Z,17.79
2018-07-06T04:58:54.190Z,17.71
2018-07-06T04:59:54.247Z,17.76
2018-07-06T05:00:54.232Z,17.77
2018-07-06T05:01:54.250Z,17.90
2018-07-06T05:02:54.274Z,17.86
2018-07-06T05:03:54.295Z,17.74
2018-07-06T05:04:54.314Z,17.74
2018-07-06T05:05:54.335Z,17.66
2018-07-06T05:06:54.362Z,17.57
2018-07-06T05:07:54.508Z,17.69
2018-07-06T05:08:54.402Z,17.73
2018-07-06T05:09:54.418Z,17.79
2018-07-06T05:10:54.443Z,17.86
2018-07-06T05:11:54.467Z,17.90
2018-07-06T05:12:54.484Z,17.87
2018-07-06T05:13:54.503Z,17.87
2018-07-06T05:14:54.527Z,17.84
2018-07-06T05:15:54.548Z,17.90
2018-07-06T05:16:54.605Z,17.92
2018-07-06T05:17:54.590Z,17.88
2018-07-06T05:18:54.612Z,17.84
2018-07-06T05:19:54.630Z,17.79
2018-07-06T05:20:54.654Z,17.80
2018-07-06T05:21:54.674Z,17.83
2018-07-06T05:22:54.693Z,17.79
2018-07-06T05:23:54.716Z,17.79
2018-07-06T05:24:54.736Z,17.79
2018-07-06T05:25:54.756Z,17.65
2018-07-06T05:26:54.779Z,17.63
2018-07-06T05:27:54.799Z,17.58
2018-07-06T05:28:54.821Z,17.66
2018-07-06T05:29:54.840Z,17.68
2018-07-06T05:30:54.862Z,17.73
2018-07-06T05:31:54.924Z,17.81
2018-07-06T05:32:54.907Z,17.80
2018-07-06T05:33:54.928Z,17.84
2018-07-06T05:34:54.946Z,17.86
2018-07-06T05:35:54.968Z,17.83
2018-07-06T05:36:54.992Z,17.81
2018-07-06T05:37:55.088Z,17.83
2018-07-06T05:38:55.034Z,17.71
2018-07-06T05:39:55.054Z,17.68
2018-07-06T05:40:55.077Z,17.81
2018-07-06T05:41:55.093Z,17.73
2018-07-06T05:42:55.118Z,17.77
2018-07-06T05:43:55.138Z,17.77
2018-07-06T05:44:55.157Z,17.76
2018-07-06T05:45:55.181Z,17.74
2018-07-06T05:46:55.201Z,17.76
2018-07-06T05:47:55.237Z,17.79
2018-07-06T05:48:55.246Z,17.84
2018-07-06T05:49:55.263Z,17.88
2018-07-06T05:50:55.283Z,17.84
2018-07-06T05:51:55.304Z,17.92
2018-07-06T05:52:55.335Z,17.84
2018-07-06T05:53:55.355Z,18.02
2018-07-06T05:54:55.367Z,17.98
2018-07-06T05:55:55.389Z,17.98
2018-07-06T05:56:55.415Z,17.90
2018-07-06T05:57:55.435Z,17.92
2018-07-06T05:58:55.452Z,17.98
2018-07-06T05:59:55.474Z,18.05
2018-07-06T06:00:55.498Z,18.05
2018-07-06T06:01:55.518Z,18.20
2018-07-06T06:02:55.538Z,18.20
2018-07-06T06:03:55.559Z,18.20
2018-07-06T06:04:55.581Z,18.19
2018-07-06T06:05:55.600Z,18.24
2018-07-06T06:06:55.625Z,18.31
2018-07-06T06:07:55.644Z,18.38
2018-07-06T06:08:55.666Z,18.36
2018-07-06T06:09:55.685Z,18.47
2018-07-06T06:10:55.707Z,18.49
2018-07-06T06:11:55.731Z,18.54
2018-07-06T06:12:55.751Z,18.63
2018-07-06T06:13:55.770Z,18.65
2018-07-06T06:14:55.871Z,18.74
2018-07-06T06:15:55.814Z,18.76
2018-07-06T06:16:55.838Z,18.79
2018-07-06T06:17:55.859Z,18.84
2018-07-06T06:18:55.942Z,18.79
2018-07-06T06:19:55.900Z,18.94
2018-07-06T06:20:55.923Z,18.86
2018-07-06T06:21:55.943Z,18.93
2018-07-06T06:22:55.963Z,18.90
2018-07-06T06:23:55.988Z,18.90
2018-07-06T06:24:56.015Z,18.90
2018-07-06T06:25:56.031Z,19.05
2018-07-06T06:26:56.052Z,19.09
2018-07-06T06:27:56.072Z,19.12
2018-07-06T06:28:56.094Z,19.12
2018-07-06T06:29:56.113Z,19.09
2018-07-06T06:30:56.135Z,19.09
2018-07-06T06:31:56.156Z,19.07
2018-07-06T06:32:56.199Z,19.19
2018-07-06T06:33:56.445Z,19.27
2018-07-06T06:34:56.275Z,19.19
2018-07-06T06:35:56.243Z,19.28
2018-07-06T06:36:56.267Z,19.27
2018-07-06T06:37:56.289Z,19.30
2018-07-06T06:38:56.314Z,19.40
2018-07-06T06:39:56.331Z,19.35
2018-07-06T06:40:56.354Z,19.40
2018-07-06T06:41:56.372Z,19.35
2018-07-06T06:42:56.398Z,19.38
2018-07-06T06:43:56.416Z,19.38
2018-07-06T06:44:56.440Z,19.38
2018-07-06T06:45:56.463Z,19.34
2018-07-06T06:46:56.484Z,19.35
2018-07-06T06:47:56.503Z,19.28
2018-07-06T06:48:56.529Z,19.31
2018-07-06T06:49:56.547Z,19.37
2018-07-06T06:50:56.569Z,19.31
2018-07-06T06:51:56.591Z,19.28
2018-07-06T06:52:56.659Z,19.27
2018-07-06T06:53:56.638Z,19.30
2018-07-06T06:54:56.658Z,19.31
2018-07-06T06:55:56.680Z,19.40
2018-07-06T06:56:56.700Z,19.49
2018-07-06T06:57:56.722Z,19.45
2018-07-06T06:58:56.799Z,19.45
2018-07-06T06:59:56.769Z,19.42
2018-07-06T07:00:56.843Z,19.38
2018-07-06T07:01:56.812Z,19.47
2018-07-06T07:02:56.836Z,19.56
2018-07-06T07:03:56.855Z,19.63
2018-07-06T07:04:56.878Z,19.67
2018-07-06T07:05:56.901Z,19.63
2018-07-06T07:06:56.924Z,19.63
2018-07-06T07:07:56.944Z,19.63
2018-07-06T07:08:56.964Z,19.79
2018-07-06T07:09:56.988Z,19.80
2018-07-06T07:10:57.007Z,19.95
2018-07-06T07:11:57.033Z,20.08
2018-07-06T07:12:57.057Z,20.18
2018-07-06T07:13:57.172Z,20.10
2018-07-06T07:14:57.099Z,19.92
2018-07-06T07:15:57.118Z,19.92
2018-07-06T07:16:57.144Z,19.90
2018-07-06T07:17:57.163Z,19.89
2018-07-06T07:18:57.189Z,19.78
2018-07-06T07:19:57.213Z,19.86
2018-07-06T07:20:57.230Z,19.79
2018-07-06T07:21:57.254Z,19.75
2018-07-06T07:22:57.274Z,19.72
2018-07-06T07:23:57.296Z,19.75
2018-07-06T07:24:57.321Z,19.74
2018-07-06T07:25:57.339Z,19.72
2018-07-06T07:26:57.362Z,19.72
2018-07-06T07:27:57.385Z,19.72
2018-07-06T07:28:57.408Z,19.78
2018-07-06T07:29:57.432Z,19.63
2018-07-06T07:30:57.455Z,19.74
2018-07-06T07:31:57.480Z,19.93
2018-07-06T07:32:57.499Z,20.05
2018-07-06T07:33:57.522Z,20.01
2018-07-06T07:34:57.543Z,20.04
2018-07-06T07:35:57.563Z,20.18
2018-07-06T07:36:57.587Z,20.19
2018-07-06T07:37:57.608Z,20.30
2018-07-06T07:38:57.943Z,20.38
2018-07-06T07:39:57.652Z,20.44
2018-07-06T07:40:57.678Z,20.49
2018-07-06T07:41:57.696Z,20.64
2018-07-06T07:42:57.721Z,20.54
2018-07-06T07:43:57.741Z,20.63
2018-07-06T07:44:57.764Z,20.67
2018-07-06T07:45:57.786Z,20.44
2018-07-06T07:46:57.810Z,20.46
2018-07-06T07:47:57.830Z,20.48
2018-07-06T07:48:57.855Z,20.51
2018-07-06T07:49:57.878Z,20.60
2018-07-06T07:50:57.901Z,20.66
2018-07-06T07:51:57.921Z,20.60
2018-07-06T07:52:57.946Z,20.79
2018-07-06T07:53:57.967Z,20.78
2018-07-06T07:54:57.993Z,20.75
2018-07-06T07:55:58.109Z,20.82
2018-07-06T07:56:58.036Z,21.00
2018-07-06T07:57:58.056Z,21.04
2018-07-06T07:58:58.081Z,21.00
2018-07-06T07:59:58.417Z,20.85
2018-07-06T08:00:58.321Z,20.81
2018-07-06T08:01:58.158Z,20.85
2018-07-06T08:02:58.172Z,20.94
2018-07-06T08:03:58.196Z,21.08
2018-07-06T08:04:58.216Z,20.97
2018-07-06T08:05:58.239Z,21.97
2018-07-06T08:06:58.263Z,21.85
2018-07-06T08:07:58.284Z,21.85
2018-07-06T08:08:58.308Z,21.85
2018-07-06T08:09:58.327Z,21.97
2018-07-06T08:10:58.351Z,21.94
2018-07-06T08:11:58.385Z,21.97
2018-07-06T08:12:58.416Z,21.77
2018-07-06T08:14:04.908Z,21.52
2018-07-06T08:14:58.446Z,21.31
2018-07-06T08:15:58.468Z,21.08
2018-07-06T08:16:58.493Z,20.91
2018-07-06T08:17:58.513Z,21.09
2018-07-06T08:18:58.536Z,20.94
2018-07-06T08:19:58.559Z,20.85
2018-07-06T08:20:58.582Z,20.96
2018-07-06T08:21:58.604Z,21.27
2018-07-06T08:22:58.631Z,22.29
2018-07-06T08:23:58.653Z,23.19
2018-07-06T08:24:58.675Z,24.02
2018-07-06T08:25:58.699Z,24.64
2018-07-06T08:26:58.722Z,25.30
2018-07-06T08:27:58.749Z,24.46
2018-07-06T08:28:58.774Z,23.78
2018-07-06T08:29:58.795Z,23.19
2018-07-06T08:30:58.818Z,22.67
2018-07-06T08:31:58.846Z,22.39
2018-07-06T08:32:58.927Z,22.41
2018-07-06T08:33:58.898Z,22.26
2018-07-06T08:34:58.917Z,22.12
2018-07-06T08:35:58.939Z,22.02
2018-07-06T08:36:58.967Z,21.94
2018-07-06T08:37:58.990Z,22.09
2018-07-06T08:38:59.016Z,23.50
2018-07-06T08:39:59.164Z,24.29
2018-07-06T08:40:59.063Z,24.86
2018-07-06T08:41:59.088Z,24.89
2018-07-06T08:42:59.111Z,24.48
2018-07-06T08:43:59.136Z,24.27
2018-07-06T08:44:59.187Z,24.80
2018-07-06T08:45:59.187Z,25.24
2018-07-06T08:46:59.213Z,25.42
2018-07-06T08:47:59.238Z,25.67
2018-07-06T08:48:59.264Z,26.23
2018-07-06T08:49:59.286Z,25.89
2018-07-06T08:50:59.316Z,25.29
2018-07-06T08:51:59.343Z,24.51
2018-07-06T08:52:59.365Z,24.21
2018-07-06T08:53:59.391Z,24.64
2018-07-06T08:54:59.418Z,25.52
2018-07-06T08:55:59.446Z,26.17
2018-07-06T08:56:59.471Z,26.76
2018-07-06T08:57:59.500Z,26.60
2018-07-06T08:58:59.525Z,26.16
2018-07-06T08:59:59.552Z,26.97
2018-07-06T09:00:59.580Z,27.37
2018-07-06T09:01:59.608Z,27.55
2018-07-06T09:02:59.634Z,26.64
2018-07-06T09:03:59.683Z,25.88
2018-07-06T09:04:59.689Z,26.53
2018-07-06T09:05:59.718Z,26.53
2018-07-06T09:06:59.744Z,26.00
2018-07-06T09:07:59.772Z,25.33
2018-07-06T09:08:59.802Z,24.93
2018-07-06T09:09:59.830Z,24.78
2018-07-06T09:10:59.856Z,24.34
2018-07-06T09:11:59.887Z,23.94
2018-07-06T09:12:59.918Z,23.93
2018-07-06T09:13:59.947Z,23.74
2018-07-06T09:14:59.971Z,24.80
2018-07-06T09:15:59.997Z,25.41
2018-07-06T09:17:00.030Z,26.20
2018-07-06T09:18:00.056Z,26.68
2018-07-06T09:19:00.079Z,27.00
2018-07-06T09:20:00.346Z,27.38
2018-07-06T09:21:00.139Z,27.99
2018-07-06T09:22:00.164Z,28.01
2018-07-06T09:23:00.197Z,27.57
2018-07-06T09:24:00.222Z,26.84
2018-07-06T09:25:00.250Z,26.67
2018-07-06T09:26:00.625Z,26.44
2018-07-06T09:27:00.306Z,25.81
2018-07-06T09:28:00.335Z,25.26
2018-07-06T09:29:00.365Z,24.90
2018-07-06T09:30:00.390Z,24.48
2018-07-06T09:31:00.420Z,25.82
2018-07-06T09:32:00.448Z,26.67
2018-07-06T09:33:00.480Z,27.08
2018-07-06T09:34:00.536Z,27.74
2018-07-06T09:35:00.536Z,26.54
2018-07-06T09:36:00.563Z,25.96
2018-07-06T09:37:00.592Z,25.11
2018-07-06T09:38:00.621Z,25.42
2018-07-06T09:39:00.670Z,26.61
2018-07-06T09:40:00.679Z,27.34
2018-07-06T09:41:00.714Z,27.94
2018-07-06T09:42:00.732Z,28.33
2018-07-06T09:43:00.762Z,28.75
2018-07-06T09:44:00.790Z,28.94
2018-07-06T09:45:00.942Z,29.15
2018-07-06T09:46:00.851Z,28.91
2018-07-06T09:47:00.881Z,28.80
2018-07-06T09:48:00.909Z,28.03
2018-07-06T09:49:00.937Z,27.69
2018-07-06T09:50:00.966Z,27.68
2018-07-06T09:51:01.048Z,28.18
2018-07-06T09:52:01.076Z,28.68
2018-07-06T09:53:01.052Z,29.05
2018-07-06T09:54:01.083Z,28.95
2018-07-06T09:55:01.111Z,28.86
2018-07-06T09:56:01.144Z,27.80
2018-07-06T09:57:01.174Z,28.08
2018-07-06T09:58:01.212Z,28.27
2018-07-06T09:59:01.234Z,28.43
2018-07-06T10:00:01.262Z,28.73
2018-07-06T10:01:01.294Z,29.11
2018-07-06T10:02:01.323Z,29.23
2018-07-06T10:03:01.353Z,29.63
2018-07-06T10:04:01.380Z,29.66
2018-07-06T10:05:01.415Z,29.91
2018-07-06T10:06:01.441Z,29.51
2018-07-06T10:07:01.475Z,28.24
2018-07-06T10:08:01.501Z,28.24
2018-07-06T10:09:01.542Z,28.83
2018-07-06T10:10:01.562Z,28.76
2018-07-06T10:11:01.639Z,29.24
2018-07-06T10:12:01.628Z,29.26
2018-07-06T10:13:01.656Z,29.70
2018-07-06T10:14:01.683Z,29.76
2018-07-06T10:15:01.714Z,30.09
2018-07-06T10:16:01.748Z,30.14
2018-07-06T10:17:01.778Z,30.04
2018-07-06T10:18:01.809Z,29.98
2018-07-06T10:19:01.842Z,30.06
2018-07-06T10:20:01.872Z,30.10
2018-07-06T10:21:01.901Z,29.52
2018-07-06T10:22:01.929Z,29.70
2018-07-06T10:23:01.962Z,29.91
2018-07-06T10:24:01.993Z,29.60
2018-07-06T10:25:02.025Z,29.57
2018-07-06T10:26:02.055Z,29.32
2018-07-06T10:27:02.087Z,29.76
2018-07-06T10:28:02.114Z,30.09
2018-07-06T10:29:02.152Z,30.04
2018-07-06T10:30:02.177Z,30.25
2018-07-06T10:31:02.208Z,30.48
2018-07-06T10:32:02.238Z,30.28
2018-07-06T10:33:02.290Z,30.13
2018-07-06T10:34:02.300Z,30.07
2018-07-06T10:35:02.331Z,29.98
2018-07-06T10:36:02.366Z,29.70
2018-07-06T10:37:02.394Z,29.98
2018-07-06T10:38:02.427Z,30.19
2018-07-06T10:39:02.457Z,30.45
2018-07-06T10:40:02.592Z,30.24
2018-07-06T10:41:02.522Z,30.14
2018-07-06T10:42:02.552Z,30.07
2018-07-06T10:43:02.582Z,30.13
2018-07-06T10:44:02.616Z,30.29
2018-07-06T10:45:02.647Z,30.11
2018-07-06T10:46:02.677Z,30.32
2018-07-06T10:47:02.709Z,30.64
2018-07-06T10:48:02.744Z,30.75
2018-07-06T10:49:02.772Z,30.70
2018-07-06T10:50:02.800Z,30.85
2018-07-06T10:51:02.832Z,30.86
2018-07-06T10:52:02.867Z,31.28
2018-07-06T10:53:02.898Z,30.96
2018-07-06T10:54:02.927Z,30.64
2018-07-06T10:55:02.957Z,30.13
2018-07-06T10:56:02.988Z,30.06
2018-07-06T10:57:03.027Z,29.52
2018-07-06T10:58:03.054Z,29.70
2018-07-06T10:59:03.087Z,29.67
2018-07-06T11:00:03.118Z,29.73
2018-07-06T11:01:03.150Z,30.14
2018-07-06T11:02:03.179Z,29.97
2018-07-06T11:03:03.212Z,30.11
2018-07-06T11:04:03.244Z,30.25
2018-07-06T11:05:03.318Z,30.59
2018-07-06T11:06:03.303Z,30.67
2018-07-06T11:07:03.338Z,30.37
2018-07-06T11:08:03.368Z,30.13
2018-07-06T11:09:03.417Z,30.13
2018-07-06T11:10:03.430Z,30.03
2018-07-06T11:11:03.459Z,30.25
2018-07-06T11:12:03.494Z,30.79
2018-07-06T11:13:03.525Z,30.59
2018-07-06T11:14:03.553Z,30.26
2018-07-06T11:15:03.589Z,30.22
2018-07-06T11:16:03.617Z,30.09
2018-07-06T11:17:03.652Z,29.69
2018-07-06T11:18:03.681Z,29.51
2018-07-06T11:19:03.765Z,29.66
2018-07-06T11:20:03.741Z,29.98
2018-07-06T11:21:03.772Z,30.03
2018-07-06T11:22:03.812Z,29.84
2018-07-06T11:23:03.838Z,30.19
2018-07-06T11:24:03.873Z,30.48
2018-07-06T11:25:03.952Z,30.75
2018-07-06T11:26:03.931Z,30.45
2018-07-06T11:27:03.962Z,30.39
2018-07-06T11:28:03.991Z,30.25
2018-07-06T11:29:04.022Z,30.63
2018-07-06T11:30:04.056Z,31.22
2018-07-06T11:31:04.087Z,31.25
2018-07-06T11:32:04.129Z,31.19
2018-07-06T11:33:04.147Z,31.22
2018-07-06T11:34:04.178Z,31.31
2018-07-06T11:35:04.211Z,30.97
2018-07-06T11:36:04.241Z,31.18
2018-07-06T11:37:04.272Z,30.88
2018-07-06T11:38:04.375Z,30.45
2018-07-06T11:39:04.336Z,30.70
2018-07-06T11:40:04.366Z,30.77
2018-07-06T11:41:04.398Z,30.88
2018-07-06T11:42:04.429Z,30.78
2018-07-06T11:43:04.459Z,30.64
2018-07-06T11:44:04.493Z,30.60
2018-07-06T11:45:04.652Z,30.35
2018-07-06T11:46:04.551Z,30.85
2018-07-06T11:47:04.584Z,30.85
2018-07-06T11:48:04.615Z,30.75
2018-07-06T11:49:04.647Z,30.67
2018-07-06T11:50:04.679Z,30.49
2018-07-06T11:51:04.710Z,30.39
2018-07-06T11:52:04.738Z,30.32
2018-07-06T11:53:04.770Z,30.93
2018-07-06T11:54:04.805Z,31.22
2018-07-06T11:55:04.835Z,31.63
2018-07-06T11:56:04.925Z,31.34
2018-07-06T11:57:04.895Z,31.72
2018-07-06T11:58:04.925Z,31.65
2018-07-06T11:59:04.960Z,30.64
2018-07-06T12:00:04.987Z,30.73
2018-07-06T12:01:05.020Z,30.52
2018-07-06T12:02:05.052Z,30.77
2018-07-06T12:03:05.083Z,30.73
2018-07-06T12:04:05.282Z,30.82
2018-07-06T12:05:05.143Z,30.89
2018-07-06T12:06:05.174Z,30.82
2018-07-06T12:07:05.205Z,30.63
2018-07-06T12:08:05.239Z,30.35
2018-07-06T12:09:05.268Z,30.06
2018-07-06T12:10:05.298Z,30.51
2018-07-06T12:11:05.331Z,30.91
2018-07-06T12:12:05.359Z,31.34
2018-07-06T12:13:05.392Z,31.90
2018-07-06T12:14:05.423Z,31.71
2018-07-06T12:15:05.455Z,31.65
2018-07-06T12:16:05.482Z,30.47
2018-07-06T12:17:05.516Z,30.00
2018-07-06T12:18:05.546Z,29.48
2018-07-06T12:19:05.580Z,29.60
2018-07-06T12:20:05.606Z,28.98
2018-07-06T12:21:05.719Z,28.97
2018-07-06T12:22:05.666Z,29.36
2018-07-06T12:23:05.699Z,29.38
2018-07-06T12:24:05.730Z,29.40
2018-07-06T12:25:05.758Z,29.95
2018-07-06T12:26:05.787Z,30.19
2018-07-06T12:27:05.816Z,30.16
2018-07-06T12:28:05.850Z,30.16
2018-07-06T12:29:05.893Z,30.11
2018-07-06T12:30:05.906Z,30.32
2018-07-06T12:31:05.936Z,30.26
2018-07-06T12:32:05.968Z,30.10
2018-07-06T12:33:05.996Z,29.92
2018-07-06T12:34:06.025Z,29.77
2018-07-06T12:35:06.063Z,29.36
2018-07-06T12:36:06.088Z,29.20
2018-07-06T12:37:06.114Z,29.51
2018-07-06T12:38:06.143Z,29.13
2018-07-06T12:39:06.176Z,29.30
2018-07-06T12:40:06.203Z,28.92
2018-07-06T12:41:06.271Z,28.63
2018-07-06T12:42:06.263Z,28.30
2018-07-06T12:43:06.290Z,28.18
2018-07-06T12:44:06.319Z,27.80
2018-07-06T12:45:06.348Z,27.86
2018-07-06T12:46:06.380Z,28.38
2018-07-06T12:47:06.447Z,28.64
2018-07-06T12:48:06.436Z,28.70
2018-07-06T12:49:06.465Z,28.57
2018-07-06T12:50:06.493Z,28.72
2018-07-06T12:51:06.520Z,28.85
2018-07-06T12:52:06.549Z,28.70
2018-07-06T12:53:06.580Z,28.85